createdAt,value
2022-08-28T00:01:12.105Z,101190.16
2022-08-28T00:06:14.912Z,101191.81
2022-08-28T00:11:19.695Z,101196.78
2022-08-28T00:16:22.591Z,101199.09
2022-08-28T00:21:31.975Z,101198.91
2022-08-28T00:26:53.880Z,101204.94
2022-08-28T00:31:57.516Z,101208.25
2022-08-28T00:37:00.313Z,101209.06
2022-08-28T00:42:05.335Z,101207.16
2022-08-28T00:47:10.012Z,101199.84
2022-08-28T00:52:15.345Z,101204.13
2022-08-28T00:57:27.152Z,101197.97
2022-08-28T01:02:31.910Z,101197.00
2022-08-28T01:07:35.272Z,101205.00
2022-08-28T01:12:39.722Z,101197.91
2022-08-28T01:17:47.333Z,101203.19
2022-08-28T01:23:01.159Z,101202.19
2022-08-28T01:28:07.864Z,101208.28
2022-08-28T01:33:10.712Z,101210.75
2022-08-28T01:38:15.501Z,101211.41
2022-08-28T01:43:26.898Z,101219.19
2022-08-28T01:48:32.220Z,101216.34
2022-08-28T01:53:35.985Z,101219.72
2022-08-28T01:58:40.966Z,101224.97
2022-08-28T02:03:44.115Z,101223.19
2022-08-28T02:08:47.150Z,101219.66
2022-08-28T02:13:52.112Z,101214.34
2022-08-28T02:18:58.348Z,101215.25
2022-08-28T02:24:01.134Z,101215.16
2022-08-28T02:29:06.276Z,101215.97
2022-08-28T02:34:11.456Z,101216.00
2022-08-28T02:39:14.346Z,101216.81
2022-08-28T02:44:18.507Z,101214.28
2022-08-28T02:49:23.015Z,101203.84
2022-08-28T02:54:27.288Z,101202.28
2022-08-28T02:59:32.114Z,101205.06
2022-08-28T03:04:35.671Z,101194.56
2022-08-28T03:09:38.717Z,101202.59
2022-08-28T03:14:43.457Z,101193.88
2022-08-28T03:19:46.309Z,101203.66
2022-08-28T03:24:49.111Z,101210.84
2022-08-28T03:29:53.301Z,101210.00
2022-08-28T03:34:56.174Z,101209.09
2022-08-28T03:39:59.125Z,101194.00
2022-08-28T03:45:03.505Z,101203.75
2022-08-28T03:50:08.093Z,101202.88
2022-08-28T03:55:14.432Z,101199.41
2022-08-28T04:00:19.177Z,101202.13
2022-08-28T04:05:22.339Z,101199.59
2022-08-28T04:10:27.809Z,101208.59
2022-08-28T04:15:32.025Z,101212.25
2022-08-28T04:20:34.936Z,101210.59
2022-08-28T04:25:40.861Z,101216.91
2022-08-28T04:30:45.080Z,101211.72
2022-08-28T04:35:47.944Z,101218.09
2022-08-28T04:40:50.793Z,101224.44
2022-08-28T04:45:55.007Z,101220.19
2022-08-28T04:50:58.157Z,101223.91
2022-08-28T04:56:01.436Z,101232.84
2022-08-28T05:01:09.292Z,101234.84
2022-08-28T05:06:13.985Z,101225.31
2022-08-28T05:11:22.105Z,101235.28
2022-08-28T05:16:44.195Z,101238.03
2022-08-28T05:21:47.398Z,101245.25
2022-08-28T05:26:50.465Z,101237.31
2022-08-28T05:31:54.782Z,101242.75
2022-08-28T05:36:58.069Z,101245.50
2022-08-28T05:42:01.009Z,101258.09
2022-08-28T05:47:05.448Z,101252.03
2022-08-28T05:52:08.277Z,101258.47
2022-08-28T05:57:11.169Z,101255.97
2022-08-28T06:02:15.603Z,101264.16
2022-08-28T06:07:19.405Z,101254.56
2022-08-28T06:12:22.746Z,101258.22
2022-08-28T06:17:27.193Z,101263.59
2022-08-28T06:22:30.165Z,101268.03
2022-08-28T06:27:34.236Z,101268.72
2022-08-28T06:32:38.735Z,101268.56
2022-08-28T06:37:41.971Z,101272.91
2022-08-28T06:42:45.038Z,101273.00
2022-08-28T06:47:50.026Z,101281.28
2022-08-28T06:52:57.694Z,101286.84
2022-08-28T06:58:00.682Z,101290.63
2022-08-28T07:03:05.984Z,101295.38
2022-08-28T07:08:09.394Z,101291.09
2022-08-28T07:13:12.786Z,101298.50
2022-08-28T07:18:18.196Z,101294.66
2022-08-28T07:23:21.184Z,101293.66
2022-08-28T07:28:24.749Z,101293.19
2022-08-28T07:33:30.068Z,101299.63
2022-08-28T07:38:32.975Z,101301.00
2022-08-28T07:43:55.239Z,101297.97
2022-08-28T07:49:00.083Z,101303.63
2022-08-28T07:54:03.972Z,101307.53
2022-08-28T07:59:07.674Z,101308.78
2022-08-28T08:04:14.339Z,101329.47
2022-08-28T08:09:19.404Z,101319.91
2022-08-28T08:14:22.405Z,101324.63
2022-08-28T08:19:26.768Z,101331.25
2022-08-28T08:24:30.567Z,101324.22
2022-08-28T08:29:37.053Z,101331.19
2022-08-28T08:34:46.052Z,101336.88
2022-08-28T08:39:50.843Z,101346.41
2022-08-28T08:44:57.170Z,101344.44
2022-08-28T08:50:03.834Z,101360.34
2022-08-28T08:55:34.423Z,101361.91
2022-08-28T09:00:40.894Z,101361.00
2022-08-28T09:05:53.855Z,101372.56
2022-08-28T09:11:03.317Z,101366.38
2022-08-28T09:16:19.418Z,101375.19
2022-08-28T09:21:30.917Z,101368.78
2022-08-28T09:26:34.843Z,101377.38
2022-08-28T09:31:41.302Z,101380.81
2022-08-28T09:36:45.997Z,101386.19
2022-08-28T09:42:23.476Z,101380.59
2022-08-28T09:47:52.972Z,101385.88
2022-08-28T09:53:33.787Z,101385.13
2022-08-28T09:58:53.879Z,101392.38
2022-08-28T10:10:02.660Z,101394.38
2022-08-28T10:15:18.482Z,101390.75
2022-08-28T10:21:09.839Z,101400.53
2022-08-28T10:33:12.991Z,101400.53
2022-08-28T10:38:40.128Z,101408.34
2022-08-28T10:43:48.189Z,101408.53
2022-08-28T10:49:17.241Z,101400.38
2022-08-28T10:54:57.592Z,101395.91
2022-08-28T11:00:19.792Z,101403.72
2022-08-28T11:12:00.999Z,101403.53
2022-08-28T11:17:18.565Z,101407.34
2022-08-28T11:22:51.483Z,101411.88
2022-08-28T11:35:03.534Z,101414.78
2022-08-28T11:40:21.541Z,101411.31
2022-08-28T11:46:01.750Z,101414.28
2022-08-28T11:51:09.790Z,101406.75
2022-08-28T11:56:41.708Z,101411.63
2022-08-28T12:01:45.934Z,101420.81
2022-08-28T12:06:56.102Z,101418.50
2022-08-28T12:12:05.111Z,101406.13
2022-08-28T12:17:29.131Z,101409.75
2022-08-28T12:22:46.222Z,101403.56
2022-08-28T12:27:49.361Z,101394.94
2022-08-28T12:33:00.408Z,101401.50
2022-08-28T12:38:06.450Z,101394.59
2022-08-28T12:43:11.225Z,101390.22
2022-08-28T12:48:25.454Z,101393.13
2022-08-28T12:53:29.018Z,101394.16
2022-08-28T12:58:34.819Z,101390.53
2022-08-28T13:03:46.063Z,101384.06
2022-08-28T13:08:50.079Z,101375.97
2022-08-28T13:13:53.010Z,101366.25
2022-08-28T13:19:27.357Z,101368.22
2022-08-28T13:24:42.374Z,101357.56
2022-08-28T13:30:00.011Z,101353.16
2022-08-28T13:35:25.517Z,101346.06
2022-08-28T13:40:56.288Z,101348.72
2022-08-28T13:45:54.207Z,101351.34
2022-08-28T13:51:03.109Z,101351.34
2022-08-28T13:56:08.280Z,101346.94
2022-08-28T14:01:12.524Z,101360.47
2022-08-28T14:06:18.319Z,101349.75
2022-08-28T14:11:21.827Z,101340.88
2022-08-28T14:16:25.533Z,101339.97
2022-08-28T14:21:29.873Z,101341.75
2022-08-28T14:26:33.226Z,101335.50
2022-08-28T14:31:37.031Z,101332.00
2022-08-28T14:36:42.574Z,101334.72
2022-08-28T14:41:46.944Z,101332.06
2022-08-28T14:46:51.695Z,101335.53
2022-08-28T14:52:00.382Z,101336.31
2022-08-28T14:57:03.190Z,101334.56
2022-08-28T15:02:06.642Z,101341.78
2022-08-28T15:07:12.944Z,101331.91
2022-08-28T15:12:16.646Z,101335.53
2022-08-28T15:17:19.752Z,101326.66
2022-08-28T15:22:27.478Z,101332.97
2022-08-28T15:27:30.595Z,101332.03
2022-08-28T15:32:33.382Z,101319.47
2022-08-28T15:37:37.518Z,101322.09
2022-08-28T15:42:40.388Z,101326.50
2022-08-28T15:47:43.200Z,101332.63
2022-08-28T15:52:47.464Z,101332.63
2022-08-28T15:57:50.705Z,101332.63
2022-08-28T16:02:55.847Z,101339.63
2022-08-28T16:08:00.771Z,101336.97
2022-08-28T16:13:06.512Z,101336.00
2022-08-28T16:18:09.627Z,101345.91
2022-08-28T16:23:14.447Z,101343.06
2022-08-28T16:28:17.290Z,101347.34
2022-08-28T16:33:22.205Z,101341.75
2022-08-28T16:38:26.466Z,101344.34
2022-08-28T16:43:29.887Z,101345.16
2022-08-28T16:48:33.581Z,101348.56
2022-08-28T16:53:39.024Z,101345.59
2022-08-28T16:58:42.950Z,101344.53
2022-08-28T17:03:45.729Z,101348.03
2022-08-28T17:08:54.525Z,101353.25
2022-08-28T17:14:00.382Z,101350.41
2022-08-28T17:19:03.422Z,101352.91
2022-08-28T17:24:08.319Z,101348.44
2022-08-28T17:29:12.403Z,101352.75
2022-08-28T17:34:15.347Z,101357.03
2022-08-28T17:39:25.254Z,101355.03
2022-08-28T17:44:28.069Z,101354.81
2022-08-28T17:49:31.087Z,101365.34
2022-08-28T17:54:35.436Z,101366.81
2022-08-28T17:59:38.363Z,101372.72
2022-08-28T18:04:41.247Z,101384.09
2022-08-28T18:09:45.749Z,101391.94
2022-08-28T18:14:48.573Z,101395.41
2022-08-28T18:19:51.553Z,101407.75
2022-08-28T18:24:55.703Z,101413.78
2022-08-28T18:29:58.842Z,101414.25
2022-08-28T18:35:01.712Z,101408.50
2022-08-28T18:40:06.712Z,101410.94
2022-08-28T18:45:10.362Z,101417.84
2022-08-28T18:50:13.547Z,101414.09
2022-08-28T18:55:17.916Z,101421.81
2022-08-28T19:00:22.236Z,101422.38
2022-08-28T19:05:25.329Z,101416.75
2022-08-28T19:10:34.062Z,101416.44
2022-08-28T19:15:38.418Z,101415.34
2022-08-28T19:20:41.448Z,101408.94
2022-08-28T19:25:48.402Z,101413.06
2022-08-28T19:30:51.464Z,101422.53
2022-08-28T19:35:55.015Z,101424.91
2022-08-28T19:40:59.887Z,101432.59
2022-08-28T19:46:02.837Z,101430.53
2022-08-28T19:51:08.475Z,101432.97
2022-08-28T19:56:26.925Z,101434.41
2022-08-28T20:01:32.931Z,101431.38
2022-08-28T20:06:37.471Z,101434.56
2022-08-28T20:11:44.187Z,101435.91
2022-08-28T20:16:50.796Z,101431.94
2022-08-28T20:21:53.662Z,101433.38
2022-08-28T20:26:58.059Z,101435.75
2022-08-28T20:32:01.291Z,101434.50
2022-08-28T20:37:04.382Z,101442.28
2022-08-28T20:42:09.147Z,101455.50
2022-08-28T20:47:11.920Z,101453.59
2022-08-28T20:52:15.643Z,101449.97
2022-08-28T20:57:22.849Z,101459.69
2022-08-28T21:02:28.146Z,101446.19
2022-08-28T21:07:31.133Z,101463.84
2022-08-28T21:12:35.870Z,101461.06
2022-08-28T21:17:38.764Z,101453.00
2022-08-28T21:22:41.900Z,101472.34
2022-08-28T21:27:46.925Z,101468.75
2022-08-28T21:32:51.131Z,101481.16
2022-08-28T21:37:54.434Z,101478.34
2022-08-28T21:42:58.727Z,101465.97
2022-08-28T21:48:01.537Z,101487.19
2022-08-28T21:53:04.962Z,101488.09
2022-08-28T21:58:09.112Z,101490.81
2022-08-28T22:03:13.693Z,101490.81
2022-08-28T22:08:17.649Z,101488.09
2022-08-28T22:13:22.067Z,101499.63
2022-08-28T22:18:33.972Z,101484.53
2022-08-28T22:23:38.098Z,101487.25
2022-08-28T22:28:42.897Z,101481.16
2022-08-28T22:33:45.847Z,101483.81
2022-08-28T22:38:53.349Z,101484.69
2022-08-28T22:43:58.842Z,101472.28
2022-08-28T22:49:01.667Z,101488.31
2022-08-28T22:54:04.757Z,101491.06
2022-08-28T22:59:09.324Z,101484.84
2022-08-28T23:04:12.621Z,101485.69
2022-08-28T23:09:15.449Z,101490.75
2022-08-28T23:14:19.661Z,101478.31
2022-08-28T23:19:22.910Z,101490.50
2022-08-28T23:24:25.732Z,101477.09
2022-08-28T23:29:30.561Z,101481.47
2022-08-28T23:34:33.313Z,101475.16
2022-08-28T23:39:38.763Z,101484.03
2022-08-28T23:44:42.927Z,101471.41
2022-08-28T23:49:48.313Z,101462.25
2022-08-28T23:54:51.396Z,101462.03
2022-08-28T23:59:55.723Z,101468.69
